Time;durP1;ratioP1;P1;durP2;ratioP2;P2;SDS_P1;SDS_P2;PMS_P1;PMS_P2;Temp;Humidity;BMP_temperature;BMP_pressure;BME280_temperature;BME280_humidity;BME280_pressure;Samples;Min_cycle;Max_cycle;Signal;HPM_P1;HPM_P2
2022/11/01 00:02:13;;;;;;;20.17;10.20;;;12.40;99.90;;;;;;5092696;28;20227;-79
2022/11/01 00:04:39;;;;;;;18.50;9.27;;;12.40;99.90;;;;;;5092846;28;20234;-79
2022/11/01 00:07:04;;;;;;;18.57;8.83;;;12.60;99.90;;;;;;5075681;28;20442;-79
2022/11/01 00:09:30;;;;;;;21.30;9.63;;;12.50;99.90;;;;;;5092884;28;20196;-79
2022/11/01 00:11:56;;;;;;;25.37;8.03;;;12.50;99.90;;;;;;5092889;28;20426;-79
2022/11/01 00:14:21;;;;;;;16.40;8.40;;;12.60;99.90;;;;;;5111015;28;20196;-79
2022/11/01 00:16:47;;;;;;;16.73;8.80;;;12.60;99.90;;;;;;5092819;28;20722;-80
2022/11/01 00:19:13;;;;;;;14.77;8.60;;;12.60;99.90;;;;;;5111076;28;20189;-79
2022/11/01 00:21:39;;;;;;;22.90;9.03;;;12.60;99.90;;;;;;5075595;28;20185;-78
2022/11/01 00:24:05;;;;;;;13.57;8.07;;;12.60;99.90;;;;;;5110443;28;20779;-80
2022/11/01 00:26:31;;;;;;;16.50;8.60;;;12.60;99.90;;;;;;5091184;28;20200;-78
2022/11/01 00:28:56;;;;;;;18.93;8.00;;;12.60;99.90;;;;;;5109665;28;20415;-78
2022/11/01 00:31:23;;;;;;;12.70;8.03;;;12.60;99.90;;;;;;5091600;28;20647;-78
2022/11/01 00:33:49;;;;;;;19.20;8.80;;;12.60;99.90;;;;;;5074600;28;20199;-78
2022/11/01 00:36:14;;;;;;;17.13;7.90;;;12.60;99.90;;;;;;5109622;28;20794;-77
2022/11/01 00:38:40;;;;;;;17.60;8.13;;;12.30;99.90;;;;;;5109646;28;20498;-78
2022/11/01 00:41:06;;;;;;;15.17;7.10;;;12.40;99.90;;;;;;5109419;28;20598;-77
2022/11/01 00:43:33;;;;;;;14.03;6.57;;;12.40;99.90;;;;;;5109283;28;20228;-77
2022/11/01 00:46:00;;;;;;;11.73;7.53;;;12.40;99.90;;;;;;5109280;28;20899;-77
2022/11/01 00:48:25;;;;;;;18.93;9.40;;;12.40;99.90;;;;;;5109302;28;20460;-77
2022/11/01 00:50:51;;;;;;;13.90;7.90;;;12.40;99.90;;;;;;5057505;28;20980;-78
2022/11/01 00:53:17;;;;;;;7.80;6.37;;;12.40;99.90;;;;;;5109419;28;20211;-78
2022/11/01 00:55:43;;;;;;;18.37;7.00;;;12.30;99.90;;;;;;5091025;28;20488;-78
2022/11/01 00:58:08;;;;;;;12.20;5.93;;;12.30;99.90;;;;;;5090896;28;20304;-78
2022/11/01 01:00:34;;;;;;;10.57;5.50;;;12.30;99.90;;;;;;5111326;28;20185;-78
2022/11/01 01:03:00;;;;;;;16.93;7.40;;;12.40;99.90;;;;;;5094852;28;20216;-78
2022/11/01 01:05:27;;;;;;;12.43;6.30;;;12.30;99.90;;;;;;5077887;28;20478;-77
2022/11/01 01:07:52;;;;;;;17.00;6.47;;;12.30;99.90;;;;;;5113105;28;20437;-81
2022/11/01 01:10:18;;;;;;;30.63;15.17;;;12.40;99.90;;;;;;5061086;28;20967;-81
2022/11/01 01:12:44;;;;;;;23.97;11.27;;;12.30;99.90;;;;;;5077996;28;20204;-82
2022/11/01 01:15:10;;;;;;;21.20;9.90;;;12.40;99.90;;;;;;5077998;28;20446;-81
2022/11/01 01:17:35;;;;;;;24.87;9.80;;;12.40;99.90;;;;;;5094534;28;20214;-81
2022/11/01 01:20:01;;;;;;;18.53;8.33;;;12.40;99.90;;;;;;5077736;28;20194;-80
2022/11/01 01:22:27;;;;;;;21.53;11.33;;;12.40;99.90;;;;;;5080112;28;20220;-80
2022/11/01 01:24:53;;;;;;;12.13;6.53;;;12.30;99.90;;;;;;5113057;28;20264;-80
2022/11/01 01:27:19;;;;;;;10.20;5.73;;;12.40;99.90;;;;;;5094479;28;20461;-82
2022/11/01 01:29:45;;;;;;;10.57;5.33;;;12.40;99.90;;;;;;5094617;28;20416;-81
2022/11/01 01:32:21;;;;;;;22.40;5.23;;;12.50;99.90;;;;;;5060998;28;20483;-83
2022/11/01 01:34:48;;;;;;;11.00;4.43;;;12.50;99.90;;;;;;5077533;28;20188;-84
2022/11/01 01:37:14;;;;;;;14.13;7.07;;;12.40;99.90;;;;;;5077226;28;20467;-79
2022/11/01 01:39:40;;;;;;;13.30;5.10;;;12.60;99.90;;;;;;5094122;28;20441;-80
2022/11/01 01:42:30;;;;;;;10.10;5.00;;;12.60;99.90;;;;;;5112380;28;20473;-80
2022/11/01 01:44:56;;;;;;;14.87;5.10;;;12.60;99.90;;;;;;5094010;28;20422;-81
2022/11/01 01:47:43;;;;;;;9.70;4.97;;;12.50;99.90;;;;;;5113532;28;20427;-80
2022/11/01 01:50:44;;;;;;;15.03;5.90;;;12.60;99.90;;;;;;5077228;28;20189;-81
2022/11/01 01:53:30;;;;;;;12.27;5.80;;;12.60;99.90;;;;;;5094107;28;20453;-81
2022/11/01 01:56:00;;;;;;;12.53;6.00;;;12.70;99.90;;;;;;5093728;28;20431;-81
2022/11/01 01:58:30;;;;;;;10.63;6.83;;;12.80;99.90;;;;;;5112356;28;20438;-79
2022/11/01 02:00:56;;;;;;;9.93;6.00;;;12.70;99.90;;;;;;5093743;28;20508;-79
2022/11/01 02:03:26;;;;;;;9.60;6.30;;;12.70;99.90;;;;;;5077055;28;20541;-79
2022/11/01 02:06:08;;;;;;;13.03;5.93;;;12.70;99.90;;;;;;5061059;28;20423;-79
2022/11/01 02:08:37;;;;;;;14.30;6.93;;;12.70;99.90;;;;;;5093997;28;20479;-80
2022/11/01 02:11:05;;;;;;;15.23;6.00;;;12.70;99.90;;;;;;5093325;28;20510;-80
2022/11/01 02:13:32;;;;;;;12.43;6.70;;;12.60;99.90;;;;;;5093826;28;20416;-80
2022/11/01 02:16:06;;;;;;;15.97;6.20;;;12.60;99.90;;;;;;5077110;28;20971;-80
2022/11/01 02:18:48;;;;;;;17.77;6.27;;;12.60;99.90;;;;;;5093657;28;20446;-79
2022/11/01 02:22:09;;;;;;;18.03;6.13;;;12.60;99.90;;;;;;5094032;28;20479;-79
2022/11/01 02:24:44;;;;;;;16.70;7.10;;;12.60;99.90;;;;;;5048610;28;20438;-83
2022/11/01 02:27:20;;;;;;;15.63;6.77;;;12.60;99.90;;;;;;5084642;28;20446;-80
2022/11/01 02:30:10;;;;;;;19.07;6.13;;;12.60;99.90;;;;;;5077537;28;20421;-80
2022/11/01 02:33:07;;;;;;;13.57;6.53;;;12.70;99.90;;;;;;5093532;28;20434;-80
2022/11/01 02:35:39;;;;;;;19.07;6.27;;;12.70;99.90;;;;;;5093404;28;20438;-80
2022/11/01 02:38:16;;;;;;;16.10;7.03;;;12.70;99.90;;;;;;5111614;28;20424;-80
2022/11/01 02:41:03;;;;;;;20.33;8.07;;;12.80;99.90;;;;;;5094373;28;20489;-80
2022/11/01 02:43:38;;;;;;;13.93;7.57;;;12.70;99.90;;;;;;5092936;28;20453;-81
2022/11/01 02:48:52;;;;;;;15.90;8.00;;;12.80;99.90;;;;;;5111796;28;20783;-80
2022/11/01 02:51:21;;;;;;;15.13;7.73;;;12.80;99.90;;;;;;5092801;28;20419;-82
2022/11/01 02:53:46;;;;;;;15.13;7.93;;;12.80;99.90;;;;;;5076284;28;20969;-81
2022/11/01 02:56:14;;;;;;;17.40;8.73;;;12.80;99.90;;;;;;5076109;28;20424;-80
2022/11/01 02:58:40;;;;;;;17.70;8.83;;;12.90;99.90;;;;;;5076430;28;20190;-80
2022/11/01 03:01:14;;;;;;;18.80;7.67;;;12.70;99.90;;;;;;5075782;28;20457;-81
2022/11/01 03:03:43;;;;;;;13.90;5.93;;;12.60;99.90;;;;;;5092452;28;20467;-83
2022/11/01 03:06:22;;;;;;;14.50;7.07;;;12.70;99.90;;;;;;5111001;28;20450;-79
2022/11/01 03:08:56;;;;;;;15.83;6.43;;;12.60;99.90;;;;;;5111186;28;20402;-78
2022/11/01 03:11:25;;;;;;;12.80;6.80;;;12.70;99.90;;;;;;5059714;28;21254;-80
2022/11/01 03:14:06;;;;;;;15.77;7.00;;;12.60;99.90;;;;;;5092491;28;20526;-80
2022/11/01 03:17:02;;;;;;;14.83;7.60;;;12.50;99.90;;;;;;5110895;28;20453;-80
2022/11/01 03:19:39;;;;;;;18.37;8.70;;;12.40;99.90;;;;;;5092250;28;20419;-83
2022/11/01 03:22:08;;;;;;;25.80;8.20;;;12.40;99.90;;;;;;5091905;28;20520;-81
2022/11/01 03:25:01;;;;;;;18.13;7.97;;;12.40;99.90;;;;;;5091857;28;21024;-81
2022/11/01 03:27:32;;;;;;;22.50;8.47;;;12.50;99.90;;;;;;5092195;28;20583;-81
2022/11/01 03:30:08;;;;;;;15.03;8.67;;;12.40;99.90;;;;;;5092741;28;20420;-80
2022/11/01 03:32:51;;;;;;;18.60;7.80;;;12.50;99.90;;;;;;5092562;28;20417;-80
2022/11/01 03:35:21;;;;;;;11.73;7.20;;;12.60;99.90;;;;;;5092439;28;20468;-80
2022/11/01 03:37:50;;;;;;;17.33;8.50;;;12.60;99.90;;;;;;5110904;28;20443;-80
2022/11/01 03:40:17;;;;;;;16.27;7.30;;;12.70;99.90;;;;;;5111038;28;20416;-80
2022/11/01 03:42:46;;;;;;;10.60;5.20;;;12.60;99.90;;;;;;5092627;28;20469;-79
2022/11/01 03:45:15;;;;;;;12.67;4.20;;;12.90;99.90;;;;;;5092535;28;20425;-80
2022/11/01 03:47:41;;;;;;;20.43;5.57;;;13.00;99.90;;;;;;5076629;28;20447;-80
2022/11/01 03:50:18;;;;;;;14.30;3.80;;;13.60;99.90;;;;;;5093296;28;20565;-80
2022/11/01 03:52:44;;;;;;;8.00;3.50;;;14.00;99.90;;;;;;5111210;28;20535;-81
2022/11/01 03:55:17;;;;;;;12.00;3.30;;;14.30;99.90;;;;;;5092201;28;21000;-81
2022/11/01 03:57:54;;;;;;;15.50;4.10;;;14.70;99.90;;;;;;5091754;28;20447;-80
2022/11/01 04:00:21;;;;;;;18.70;3.60;;;15.00;99.90;;;;;;5074893;28;20461;-81
2022/11/01 04:02:50;;;;;;;12.97;4.60;;;15.10;99.90;;;;;;5074877;28;20486;-81
2022/11/01 04:05:17;;;;;;;15.83;4.30;;;15.30;99.90;;;;;;5075463;28;20419;-82
2022/11/01 04:07:43;;;;;;;8.20;3.73;;;15.50;99.90;;;;;;5109975;28;21314;-82
2022/11/01 04:10:09;;;;;;;9.03;3.20;;;15.60;99.90;;;;;;5074903;28;20423;-82
2022/11/01 04:12:34;;;;;;;11.93;3.27;;;15.80;99.90;;;;;;5075004;28;20723;-82
2022/11/01 04:20:34;;;;;;;6.43;3.07;;;15.80;99.90;;;;;;5094809;28;20418;-80
2022/11/01 04:23:01;;;;;;;10.20;3.17;;;15.90;99.90;;;;;;5075508;28;20459;-78
2022/11/01 04:25:27;;;;;;;14.53;3.70;;;15.90;99.90;;;;;;5091388;28;20426;-76
2022/11/01 04:27:56;;;;;;;8.40;3.70;;;15.90;99.90;;;;;;5091344;28;20458;-82
2022/11/01 04:30:27;;;;;;;11.50;3.43;;;16.00;99.90;;;;;;5092317;28;20424;-79
2022/11/01 04:32:53;;;;;;;16.37;4.30;;;16.00;99.90;;;;;;5075202;28;20456;-79
2022/11/01 04:35:19;;;;;;;8.50;3.03;;;16.00;99.90;;;;;;5091699;28;20449;-77
2022/11/01 04:37:45;;;;;;;8.80;4.00;;;16.10;99.90;;;;;;5110522;28;20443;-79
2022/11/01 04:40:12;;;;;;;8.33;3.20;;;16.10;99.90;;;;;;5075351;28;20458;-79
2022/11/01 04:42:38;;;;;;;8.60;3.80;;;16.10;99.90;;;;;;5110379;28;20464;-79
2022/11/01 04:45:06;;;;;;;10.03;3.63;;;16.20;99.90;;;;;;5075477;28;20952;-80
2022/11/01 04:47:33;;;;;;;9.33;4.37;;;16.10;99.90;;;;;;5075045;28;21040;-80
2022/11/01 04:49:58;;;;;;;9.50;3.10;;;16.20;99.90;;;;;;5091960;28;20398;-80
2022/11/01 04:52:24;;;;;;;10.70;3.20;;;16.10;99.90;;;;;;5075587;28;20781;-80
2022/11/01 04:54:50;;;;;;;14.10;3.57;;;16.20;99.90;;;;;;5075046;28;20289;-79
2022/11/01 04:57:24;;;;;;;13.27;3.80;;;16.20;99.90;;;;;;5074904;28;20284;-78
2022/11/01 04:59:54;;;;;;;8.93;3.00;;;16.30;99.90;;;;;;5091910;28;20274;-79
2022/11/01 05:02:22;;;;;;;7.93;3.27;;;16.30;99.90;;;;;;5110658;28;20987;-76
2022/11/01 05:04:48;;;;;;;11.20;4.00;;;16.30;99.90;;;;;;5109992;28;20424;-75
2022/11/01 05:07:14;;;;;;;9.97;2.90;;;16.30;99.90;;;;;;5111234;28;20447;-77
2022/11/01 05:09:40;;;;;;;10.10;3.67;;;16.30;99.90;;;;;;5111128;28;20417;-76
2022/11/01 05:12:07;;;;;;;9.70;2.70;;;16.40;99.90;;;;;;5112620;28;20781;-76
2022/11/01 05:14:32;;;;;;;9.17;2.90;;;16.40;99.90;;;;;;5093338;28;20435;-76
2022/11/01 05:16:58;;;;;;;9.33;2.90;;;16.40;99.90;;;;;;5112965;28;20451;-75
2022/11/01 05:19:24;;;;;;;6.97;2.90;;;16.40;99.90;;;;;;5112471;28;20548;-75
2022/11/01 05:21:50;;;;;;;9.80;3.40;;;16.40;99.90;;;;;;5093677;28;20277;-75
2022/11/01 05:24:15;;;;;;;5.43;2.40;;;16.30;99.90;;;;;;5112341;28;20183;-75
2022/11/01 05:26:41;;;;;;;9.13;2.40;;;16.30;99.90;;;;;;5112321;28;20442;-76
2022/11/01 05:29:07;;;;;;;3.93;2.07;;;16.30;99.90;;;;;;5115992;28;20603;-75
2022/11/01 05:31:33;;;;;;;5.37;2.53;;;16.20;99.90;;;;;;5094397;28;20845;-75
2022/11/01 05:33:58;;;;;;;4.27;2.20;;;16.20;99.90;;;;;;5111188;28;20553;-76
2022/11/01 05:36:24;;;;;;;10.00;3.00;;;16.20;99.90;;;;;;5127229;28;20181;-79
2022/11/01 05:38:50;;;;;;;5.63;2.43;;;16.20;99.90;;;;;;5094657;28;20813;-77
2022/11/01 05:41:15;;;;;;;8.40;3.00;;;16.20;99.90;;;;;;5090917;28;20187;-78
2022/11/01 05:43:41;;;;;;;8.10;2.57;;;16.20;99.90;;;;;;5074452;28;20343;-78
2022/11/01 05:46:07;;;;;;;8.83;2.57;;;16.20;99.90;;;;;;5093104;28;20254;-77
2022/11/01 05:48:33;;;;;;;6.23;3.17;;;16.10;99.90;;;;;;5101698;28;20204;-77
2022/11/01 05:50:59;;;;;;;6.60;2.80;;;16.10;99.90;;;;;;5062329;28;20438;-77
2022/11/01 05:53:24;;;;;;;6.50;2.50;;;16.00;99.90;;;;;;5113011;28;20744;-78
2022/11/01 05:55:50;;;;;;;6.23;2.87;;;16.00;99.90;;;;;;5077241;28;20203;-77
2022/11/01 05:58:16;;;;;;;8.77;2.90;;;16.00;99.90;;;;;;5094067;28;20212;-77
2022/11/01 06:00:41;;;;;;;14.13;3.17;;;16.00;99.90;;;;;;5112909;28;20688;-76
2022/11/01 06:03:08;;;;;;;12.83;2.87;;;16.00;99.90;;;;;;5112499;28;20203;-77
2022/11/01 06:05:36;;;;;;;14.07;3.00;;;15.90;99.90;;;;;;5112669;28;20202;-78
2022/11/01 06:08:03;;;;;;;8.87;2.77;;;15.90;99.90;;;;;;5112053;28;21273;-78
2022/11/01 06:10:29;;;;;;;14.40;2.90;;;15.90;99.90;;;;;;5093974;28;20419;-77
2022/11/01 06:12:55;;;;;;;4.60;2.90;;;15.90;99.90;;;;;;5112054;28;20422;-77
2022/11/01 06:15:21;;;;;;;13.90;3.50;;;15.90;99.90;;;;;;5112161;28;20456;-77
2022/11/01 06:17:47;;;;;;;8.23;3.27;;;15.90;99.90;;;;;;5111855;28;20468;-77
2022/11/01 06:20:12;;;;;;;5.30;2.80;;;15.90;99.90;;;;;;5111743;28;21008;-77
2022/11/01 06:22:38;;;;;;;14.00;3.10;;;15.90;99.90;;;;;;5093872;28;20284;-77
2022/11/01 06:25:05;;;;;;;7.07;3.17;;;15.90;99.90;;;;;;5111969;28;20548;-77
2022/11/01 06:27:31;;;;;;;5.20;2.60;;;15.90;99.90;;;;;;5112098;28;20472;-77
2022/11/01 06:29:56;;;;;;;5.60;2.47;;;15.90;99.90;;;;;;5094017;28;20477;-78
2022/11/01 06:32:22;;;;;;;6.40;2.40;;;15.90;99.90;;;;;;5112338;28;20860;-77
2022/11/01 06:34:48;;;;;;;6.40;2.77;;;15.90;99.90;;;;;;5093232;28;20187;-77
2022/11/01 06:37:13;;;;;;;8.67;2.80;;;15.80;99.90;;;;;;5111331;28;20209;-78
2022/11/01 06:39:39;;;;;;;3.23;2.20;;;15.60;99.90;;;;;;5111260;28;20188;-77
2022/11/01 06:42:05;;;;;;;5.50;1.70;;;15.70;99.90;;;;;;5092885;28;20187;-77
2022/11/01 06:44:30;;;;;;;6.20;2.07;;;15.70;99.90;;;;;;5111757;28;20261;-77
2022/11/01 06:46:56;;;;;;;4.43;2.10;;;15.80;99.90;;;;;;5076438;28;20232;-77
2022/11/01 06:49:21;;;;;;;3.80;1.73;;;15.90;99.90;;;;;;5093388;28;20704;-77
2022/11/01 06:51:47;;;;;;;5.60;1.70;;;15.90;99.90;;;;;;5075881;28;20223;-77
2022/11/01 06:54:13;;;;;;;2.90;1.30;;;15.90;99.90;;;;;;5111161;28;20902;-77
2022/11/01 06:56:39;;;;;;;3.20;1.37;;;15.90;99.90;;;;;;5110968;28;20271;-77
2022/11/01 06:59:05;;;;;;;5.20;1.57;;;15.90;99.90;;;;;;5110044;28;20288;-77
2022/11/01 07:01:32;;;;;;;1.83;1.10;;;16.00;99.90;;;;;;5111825;28;20442;-77
2022/11/01 07:03:57;;;;;;;4.20;1.50;;;15.90;99.90;;;;;;5110746;28;20472;-76
2022/11/01 07:06:27;;;;;;;1.20;1.00;;;15.90;99.90;;;;;;5111032;28;20439;-77
2022/11/01 07:08:53;;;;;;;2.97;1.03;;;15.90;99.90;;;;;;5110867;28;20174;-77
2022/11/01 07:11:19;;;;;;;8.47;1.33;;;15.90;99.90;;;;;;5111004;28;20527;-76
2022/11/01 07:13:44;;;;;;;3.33;1.40;;;15.80;99.90;;;;;;5110825;28;20876;-76
2022/11/01 07:16:10;;;;;;;3.17;1.23;;;15.80;99.90;;;;;;5075286;28;20190;-76
2022/11/01 07:18:35;;;;;;;1.70;1.10;;;15.70;99.90;;;;;;5110600;28;20311;-76
2022/11/01 07:21:03;;;;;;;2.63;0.90;;;15.70;99.90;;;;;;5111130;28;20191;-77
2022/11/01 07:23:29;;;;;;;1.63;1.10;;;15.70;99.90;;;;;;5110647;28;20214;-77
2022/11/01 07:25:55;;;;;;;1.83;0.80;;;15.70;99.90;;;;;;5111060;28;20486;-76
2022/11/01 07:28:21;;;;;;;2.90;0.90;;;15.70;99.90;;;;;;5110708;28;20441;-77
2022/11/01 07:30:51;;;;;;;1.70;0.90;;;15.60;99.90;;;;;;5092228;28;20838;-76
2022/11/01 07:33:17;;;;;;;2.93;1.10;;;15.60;99.90;;;;;;5110553;28;20199;-78
2022/11/01 07:35:43;;;;;;;2.07;0.87;;;15.70;99.90;;;;;;5092668;28;20948;-78
2022/11/01 07:38:09;;;;;;;2.33;0.80;;;15.60;99.90;;;;;;5092252;28;20447;-78
2022/11/01 07:40:35;;;;;;;7.43;0.87;;;15.60;99.90;;;;;;5092131;28;20837;-78
2022/11/01 07:43:01;;;;;;;1.37;0.90;;;15.60;99.90;;;;;;5091824;28;20516;-78
2022/11/01 07:45:29;;;;;;;1.00;0.80;;;15.60;99.90;;;;;;5110273;28;20192;-78
2022/11/01 07:48:03;;;;;;;2.03;1.00;;;15.60;99.90;;;;;;5091909;28;20198;-78
2022/11/01 07:50:30;;;;;;;2.30;0.80;;;15.70;99.90;;;;;;5112107;28;20404;-79
2022/11/01 07:53:04;;;;;;;2.40;0.87;;;15.70;99.90;;;;;;5092281;28;20439;-77
2022/11/01 07:55:30;;;;;;;3.83;1.10;;;15.70;99.90;;;;;;5110752;28;20455;-78
2022/11/01 07:57:56;;;;;;;3.80;0.80;;;15.70;99.90;;;;;;5092483;28;20479;-78
2022/11/01 08:00:22;;;;;;;2.73;1.10;;;15.70;99.90;;;;;;5075729;28;20535;-77
2022/11/01 08:02:48;;;;;;;1.77;0.83;;;15.70;99.90;;;;;;5075433;28;20520;-79
2022/11/01 08:05:14;;;;;;;3.17;1.13;;;15.80;99.90;;;;;;5110531;28;20418;-79
2022/11/01 08:07:40;;;;;;;1.33;0.87;;;15.80;99.90;;;;;;5091612;28;20981;-78
2022/11/01 08:10:07;;;;;;;1.50;0.63;;;15.80;99.90;;;;;;5091509;28;20188;-78
2022/11/01 08:12:33;;;;;;;3.70;0.90;;;15.80;99.90;;;;;;5091042;28;20430;-78
2022/11/01 08:15:01;;;;;;;1.43;0.63;;;15.90;99.90;;;;;;5110056;28;20427;-79
2022/11/01 08:17:28;;;;;;;1.57;0.60;;;15.90;99.90;;;;;;5091526;28;20524;-78
2022/11/01 08:19:54;;;;;;;0.90;0.70;;;16.00;99.90;;;;;;5091472;28;20449;-78
2022/11/01 08:22:20;;;;;;;1.47;0.63;;;16.00;99.90;;;;;;5109845;28;20468;-78
2022/11/01 08:24:45;;;;;;;1.43;0.70;;;16.10;99.90;;;;;;5090797;28;20435;-78
2022/11/01 08:27:11;;;;;;;1.97;0.80;;;16.10;99.90;;;;;;5108968;28;20472;-78
2022/11/01 08:29:37;;;;;;;0.83;0.60;;;16.10;99.90;;;;;;5090976;28;20183;-78
2022/11/01 08:32:02;;;;;;;1.80;0.80;;;16.20;99.90;;;;;;5091029;28;20254;-77
2022/11/01 08:34:29;;;;;;;2.03;0.57;;;16.20;99.90;;;;;;5090906;28;20186;-78
2022/11/01 08:36:56;;;;;;;0.90;0.70;;;16.20;99.90;;;;;;5090921;28;20208;-79
2022/11/01 08:39:22;;;;;;;2.13;0.70;;;16.20;99.90;;;;;;5109685;28;20423;-78
2022/11/01 08:41:48;;;;;;;1.47;0.60;;;16.30;99.90;;;;;;5091290;28;20420;-79
2022/11/01 08:44:16;;;;;;;2.17;0.60;;;16.40;99.90;;;;;;5109757;28;20211;-78
2022/11/01 08:46:42;;;;;;;1.27;0.73;;;16.50;99.90;;;;;;5091337;28;20447;-78
2022/11/01 08:49:09;;;;;;;2.13;0.70;;;16.60;99.90;;;;;;5074651;28;20436;-78
2022/11/01 08:51:35;;;;;;;2.13;1.07;;;16.60;99.90;;;;;;5091134;28;20428;-79
2022/11/01 08:54:00;;;;;;;0.90;0.60;;;16.60;99.90;;;;;;5092168;28;20442;-79
2022/11/01 08:56:28;;;;;;;1.57;0.70;;;16.70;99.90;;;;;;5075241;28;20438;-79
2022/11/01 08:58:54;;;;;;;1.00;0.50;;;16.70;99.90;;;;;;5092298;28;20186;-80
2022/11/01 09:01:22;;;;;;;1.27;0.60;;;16.80;99.90;;;;;;5091643;28;20454;-78
2022/11/01 09:03:48;;;;;;;0.90;0.67;;;16.90;99.90;;;;;;5108502;28;20492;-77
2022/11/01 09:06:14;;;;;;;1.80;0.60;;;17.00;99.90;;;;;;5108485;28;20424;-75
2022/11/01 09:08:40;;;;;;;1.50;0.77;;;17.10;99.90;;;;;;5108761;28;20417;-79
2022/11/01 09:11:06;;;;;;;1.10;0.50;;;17.10;99.90;;;;;;5108492;28;20824;-76
2022/11/01 09:13:32;;;;;;;2.20;1.23;;;17.20;99.90;;;;;;5091628;28;20239;-80
2022/11/01 09:15:58;;;;;;;1.50;0.80;;;17.30;99.90;;;;;;5092347;28;20208;-78
2022/11/01 09:18:23;;;;;;;1.20;0.80;;;17.40;99.90;;;;;;5110631;28;20844;-78
2022/11/01 09:20:54;;;;;;;2.03;1.00;;;17.40;99.90;;;;;;5111217;28;20185;-78
2022/11/01 09:23:19;;;;;;;1.67;0.67;;;17.50;99.90;;;;;;5113909;28;20209;-79
2022/11/01 09:25:45;;;;;;;1.63;0.83;;;17.30;99.90;;;;;;5113950;28;20413;-80
2022/11/01 09:28:11;;;;;;;1.10;0.70;;;17.30;99.90;;;;;;5094509;28;20281;-78
2022/11/01 09:30:36;;;;;;;1.00;0.50;;;17.30;99.90;;;;;;5095539;28;20193;-78
2022/11/01 09:33:06;;;;;;;1.77;0.50;;;17.40;99.90;;;;;;5113336;28;20223;-78
2022/11/01 09:35:32;;;;;;;1.50;0.60;;;17.50;99.90;;;;;;5112577;28;20613;-80
2022/11/01 09:37:59;;;;;;;0.90;0.60;;;17.50;99.90;;;;;;5094524;28;20443;-78
2022/11/01 09:40:27;;;;;;;7.53;0.70;;;17.60;99.90;;;;;;5112609;28;20426;-78
2022/11/01 09:42:53;;;;;;;0.90;0.60;;;17.50;99.90;;;;;;5093646;28;20513;-78
2022/11/01 09:45:23;;;;;;;1.10;0.50;;;17.50;99.90;;;;;;5112445;28;20415;-79
2022/11/01 09:47:54;;;;;;;0.80;0.60;;;17.50;99.90;;;;;;5112352;28;20940;-79
2022/11/01 09:50:28;;;;;;;1.00;0.60;;;17.70;99.90;;;;;;5076764;28;20423;-79
2022/11/01 09:52:55;;;;;;;1.43;0.63;;;18.00;99.90;;;;;;5111485;28;20425;-79
2022/11/01 09:55:33;;;;;;;1.00;0.60;;;18.30;99.90;;;;;;5111743;28;20426;-80
2022/11/01 09:58:16;;;;;;;1.57;0.53;;;18.90;99.90;;;;;;5112887;28;20439;-79
2022/11/01 10:00:52;;;;;;;0.90;0.50;;;19.80;99.90;;;;;;5093676;28;20434;-79
2022/11/01 10:03:53;;;;;;;1.53;0.60;;;20.10;99.90;;;;;;5094686;28;20478;-79
2022/11/01 10:06:26;;;;;;;1.60;0.50;;;20.70;99.90;;;;;;5082217;28;20902;-80
2022/11/01 10:09:30;;;;;;;1.73;0.60;;;21.20;99.90;;;;;;5113755;28;20406;-80
2022/11/01 10:12:08;;;;;;;2.10;0.60;;;21.40;99.90;;;;;;5113906;28;20415;-79
2022/11/01 10:15:12;;;;;;;0.80;0.40;;;21.90;99.90;;;;;;5095265;28;20434;-79
2022/11/01 10:17:48;;;;;;;0.80;0.50;;;22.10;97.40;;;;;;5091806;28;20850;-79
2022/11/01 10:20:14;;;;;;;1.87;0.60;;;22.50;96.80;;;;;;5094016;28;20401;-79
2022/11/01 10:22:44;;;;;;;1.47;0.50;;;22.90;96.40;;;;;;5093888;28;21330;-79
2022/11/01 10:25:21;;;;;;;1.00;0.50;;;23.50;96.00;;;;;;5060947;28;20442;-81
2022/11/01 10:27:58;;;;;;;0.70;0.43;;;23.60;94.60;;;;;;5094023;28;20902;-82
2022/11/01 10:30:26;;;;;;;1.73;0.70;;;23.20;94.30;;;;;;5094047;28;20481;-81
2022/11/01 10:33:29;;;;;;;0.80;0.50;;;24.00;94.40;;;;;;5112596;28;20424;-81
2022/11/01 10:36:17;;;;;;;0.97;0.47;;;24.20;91.70;;;;;;5062551;28;20427;-82
2022/11/01 10:38:51;;;;;;;0.80;0.50;;;23.70;92.40;;;;;;5093303;28;20415;-81
2022/11/01 10:41:16;;;;;;;1.10;0.50;;;23.30;92.90;;;;;;5093854;28;20409;-81
2022/11/01 10:43:50;;;;;;;2.70;0.53;;;22.70;92.90;;;;;;5094020;28;20497;-81
2022/11/01 10:46:24;;;;;;;1.00;0.63;;;22.10;94.30;;;;;;5094256;28;20263;-81
2022/11/01 10:48:54;;;;;;;0.80;0.50;;;21.50;94.60;;;;;;5112487;28;21211;-80
2022/11/01 10:51:23;;;;;;;2.10;0.83;;;20.90;96.20;;;;;;5111770;28;20404;-79
2022/11/01 10:53:53;;;;;;;1.20;0.50;;;20.40;97.70;;;;;;5092685;28;20435;-79
2022/11/01 10:56:27;;;;;;;0.90;0.50;;;20.30;98.20;;;;;;5093199;28;20410;-79
2022/11/01 10:59:03;;;;;;;1.53;0.60;;;20.20;99.90;;;;;;5111636;28;20404;-81
2022/11/01 11:01:42;;;;;;;0.90;0.63;;;19.90;98.90;;;;;;5111932;28;20464;-81
2022/11/01 11:04:15;;;;;;;1.57;0.60;;;19.70;99.90;;;;;;5111163;28;21040;-80
2022/11/01 11:06:41;;;;;;;1.43;0.70;;;19.60;99.90;;;;;;5112589;28;20451;-78
2022/11/01 11:09:28;;;;;;;0.83;0.50;;;19.50;99.90;;;;;;5113679;28;20418;-78
2022/11/01 11:12:02;;;;;;;0.90;0.63;;;19.40;99.90;;;;;;5097220;28;20412;-79
2022/11/01 11:14:30;;;;;;;1.30;0.70;;;19.20;99.90;;;;;;5080030;28;20513;-77
2022/11/01 11:16:57;;;;;;;3.17;0.60;;;19.20;99.90;;;;;;5109813;28;20527;-78
2022/11/01 11:19:28;;;;;;;0.80;0.60;;;19.30;99.90;;;;;;5091631;28;20428;-77
2022/11/01 11:21:55;;;;;;;3.10;0.90;;;19.40;99.90;;;;;;5109804;28;20419;-77
2022/11/01 11:24:22;;;;;;;1.10;0.60;;;19.50;99.90;;;;;;5058249;28;20463;-77
2022/11/01 11:26:51;;;;;;;3.53;1.13;;;19.50;99.90;;;;;;5111824;28;20427;-78
2022/11/01 11:29:47;;;;;;;1.43;0.70;;;19.40;99.90;;;;;;5076388;28;20925;-76
2022/11/01 11:32:22;;;;;;;1.53;0.80;;;19.30;99.90;;;;;;5109572;28;20394;-75
2022/11/01 11:34:57;;;;;;;2.50;0.80;;;19.20;99.90;;;;;;5110612;28;20405;-76
2022/11/01 11:37:25;;;;;;;1.60;0.80;;;19.20;99.90;;;;;;5110735;28;20427;-75
2022/11/01 11:40:05;;;;;;;1.77;1.00;;;19.20;99.90;;;;;;5110818;28;20416;-77
2022/11/01 11:42:32;;;;;;;1.67;1.00;;;19.00;99.90;;;;;;5091966;28;20462;-76
2022/11/01 11:45:23;;;;;;;3.93;1.20;;;18.90;99.90;;;;;;5109608;28;20421;-76
2022/11/01 11:47:49;;;;;;;1.60;1.10;;;18.90;99.90;;;;;;5110430;28;20458;-76
2022/11/01 11:50:31;;;;;;;1.20;0.80;;;18.90;99.90;;;;;;5132982;28;20419;-77
2022/11/01 11:53:12;;;;;;;2.37;1.00;;;18.90;99.90;;;;;;5118449;28;20434;-77
2022/11/01 11:55:39;;;;;;;1.77;0.87;;;18.90;99.90;;;;;;5135670;27;20671;-77
2022/11/01 11:58:25;;;;;;;3.00;1.13;;;18.90;99.90;;;;;;5125923;27;20445;-77
2022/11/01 12:00:57;;;;;;;1.50;1.20;;;18.80;99.90;;;;;;5091337;28;20546;-77
2022/11/01 12:03:22;;;;;;;2.40;0.83;;;18.70;99.90;;;;;;5108927;28;20892;-76
2022/11/01 12:05:58;;;;;;;2.80;0.70;;;18.60;99.90;;;;;;5090334;28;20431;-76
2022/11/01 12:08:33;;;;;;;2.30;1.03;;;18.70;99.90;;;;;;5108183;28;20464;-76
2022/11/01 12:10:59;;;;;;;1.00;0.77;;;18.80;99.90;;;;;;5091280;28;20994;-77
2022/11/01 12:13:33;;;;;;;3.83;1.03;;;18.60;99.90;;;;;;5089924;28;20530;-75
2022/11/01 12:16:28;;;;;;;2.17;0.90;;;18.70;99.90;;;;;;5108214;28;20251;-76
2022/11/01 12:19:00;;;;;;;5.10;1.00;;;18.70;99.90;;;;;;5094885;28;20453;-76
2022/11/01 12:21:38;;;;;;;1.63;1.20;;;18.60;99.90;;;;;;5108715;28;20426;-79
2022/11/01 12:24:22;;;;;;;1.23;0.90;;;18.70;99.90;;;;;;5091819;28;20467;-78
2022/11/01 12:26:52;;;;;;;4.93;0.80;;;18.80;99.90;;;;;;5110263;28;20426;-79
2022/11/01 12:29:23;;;;;;;1.70;0.80;;;18.80;99.90;;;;;;5110020;28;20544;-79
2022/11/01 12:31:51;;;;;;;3.00;0.83;;;18.70;99.90;;;;;;5091086;28;20449;-78
2022/11/01 12:34:23;;;;;;;2.67;0.70;;;18.80;99.90;;;;;;5091402;28;20508;-78
2022/11/01 12:37:20;;;;;;;1.10;0.90;;;18.90;99.90;;;;;;5091284;28;20496;-79
2022/11/01 12:39:59;;;;;;;2.40;1.20;;;19.00;99.90;;;;;;5109802;28;20509;-78
2022/11/01 12:42:39;;;;;;;1.33;1.00;;;19.10;99.90;;;;;;5091781;28;20424;-79
2022/11/01 12:45:44;;;;;;;2.40;0.80;;;19.20;99.90;;;;;;5092074;28;20521;-81
2022/11/01 12:48:17;;;;;;;4.17;1.33;;;19.50;99.90;;;;;;5096380;28;20445;-80
2022/11/01 12:50:49;;;;;;;3.10;0.83;;;19.70;99.90;;;;;;5110339;28;20485;-80
2022/11/01 12:53:26;;;;;;;1.87;0.90;;;19.60;99.90;;;;;;5091702;28;20425;-80
2022/11/01 12:55:52;;;;;;;2.33;1.03;;;19.60;99.90;;;;;;5092164;28;20434;-80
2022/11/01 12:58:20;;;;;;;1.50;0.80;;;19.70;99.90;;;;;;5095078;28;20595;-80
2022/11/01 13:01:09;;;;;;;3.17;1.27;;;19.70;99.90;;;;;;5095661;28;21007;-80
2022/11/01 13:04:12;;;;;;;5.43;1.60;;;20.00;99.90;;;;;;5113967;28;21298;-79
2022/11/01 13:07:09;;;;;;;1.53;0.90;;;19.80;99.90;;;;;;5093769;28;21037;-79
2022/11/01 13:10:06;;;;;;;5.40;1.00;;;19.90;99.90;;;;;;5113146;28;20418;-79